sensor_id;sensor_type;location;lat;lon;timestamp;P1;durP1;ratioP1;P2;durP2;ratioP2
29362;SDS011;16349;53.672;10.014;2023-12-29T00:00:48;6.07;;;1.60;;
29362;SDS011;16349;53.672;10.014;2023-12-29T00:03:14;5.90;;;2.27;;
29362;SDS011;16349;53.672;10.014;2023-12-29T00:05:41;6.70;;;1.50;;
29362;SDS011;16349;53.672;10.014;2023-12-29T00:08:08;6.60;;;1.63;;
29362;SDS011;16349;53.672;10.014;2023-12-29T00:10:35;5.07;;;1.90;;
29362;SDS011;16349;53.672;10.014;2023-12-29T00:13:02;4.57;;;1.63;;
29362;SDS011;16349;53.672;10.014;2023-12-29T00:15:30;7.10;;;1.80;;
29362;SDS011;16349;53.672;10.014;2023-12-29T00:17:57;5.63;;;1.87;;
29362;SDS011;16349;53.672;10.014;2023-12-29T00:20:24;8.10;;;1.70;;
29362;SDS011;16349;53.672;10.014;2023-12-29T00:22:51;7.67;;;1.60;;
29362;SDS011;16349;53.672;10.014;2023-12-29T00:25:19;6.20;;;1.67;;
29362;SDS011;16349;53.672;10.014;2023-12-29T00:27:45;10.40;;;1.93;;
29362;SDS011;16349;53.672;10.014;2023-12-29T00:30:12;12.50;;;2.30;;
29362;SDS011;16349;53.672;10.014;2023-12-29T00:32:41;10.63;;;1.63;;
29362;SDS011;16349;53.672;10.014;2023-12-29T00:35:08;4.63;;;1.70;;
29362;SDS011;16349;53.672;10.014;2023-12-29T00:37:35;5.93;;;1.97;;
29362;SDS011;16349;53.672;10.014;2023-12-29T00:40:01;6.67;;;1.73;;
29362;SDS011;16349;53.672;10.014;2023-12-29T00:42:30;6.70;;;1.87;;
29362;SDS011;16349;53.672;10.014;2023-12-29T00:44:58;5.07;;;1.83;;
29362;SDS011;16349;53.672;10.014;2023-12-29T00:47:25;6.20;;;2.07;;
29362;SDS011;16349;53.672;10.014;2023-12-29T00:49:53;5.93;;;2.13;;
29362;SDS011;16349;53.672;10.014;2023-12-29T00:52:20;8.87;;;2.20;;
29362;SDS011;16349;53.672;10.014;2023-12-29T00:54:47;4.77;;;1.80;;
29362;SDS011;16349;53.672;10.014;2023-12-29T00:57:14;7.83;;;2.17;;
29362;SDS011;16349;53.672;10.014;2023-12-29T00:59:41;2.83;;;1.77;;
29362;SDS011;16349;53.672;10.014;2023-12-29T01:02:09;5.90;;;1.97;;
29362;SDS011;16349;53.672;10.014;2023-12-29T01:04:36;8.77;;;2.00;;
29362;SDS011;16349;53.672;10.014;2023-12-29T01:07:05;10.43;;;2.40;;
29362;SDS011;16349;53.672;10.014;2023-12-29T01:09:32;6.47;;;1.97;;
29362;SDS011;16349;53.672;10.014;2023-12-29T01:12:05;8.70;;;2.00;;
29362;SDS011;16349;53.672;10.014;2023-12-29T01:14:32;2.63;;;1.73;;
29362;SDS011;16349;53.672;10.014;2023-12-29T01:16:59;5.17;;;1.60;;
29362;SDS011;16349;53.672;10.014;2023-12-29T01:19:26;5.43;;;2.30;;
29362;SDS011;16349;53.672;10.014;2023-12-29T01:21:52;13.10;;;2.83;;
29362;SDS011;16349;53.672;10.014;2023-12-29T01:24:22;6.60;;;2.03;;
29362;SDS011;16349;53.672;10.014;2023-12-29T01:26:48;6.60;;;2.90;;
29362;SDS011;16349;53.672;10.014;2023-12-29T01:29:15;7.40;;;1.93;;
29362;SDS011;16349;53.672;10.014;2023-12-29T01:31:42;7.93;;;2.20;;
29362;SDS011;16349;53.672;10.014;2023-12-29T01:34:09;8.07;;;1.80;;
29362;SDS011;16349;53.672;10.014;2023-12-29T01:36:36;8.17;;;1.73;;
29362;SDS011;16349;53.672;10.014;2023-12-29T01:39:02;4.47;;;1.80;;
29362;SDS011;16349;53.672;10.014;2023-12-29T01:41:31;5.83;;;2.83;;
29362;SDS011;16349;53.672;10.014;2023-12-29T01:44:17;5.23;;;2.17;;
29362;SDS011;16349;53.672;10.014;2023-12-29T01:46:46;3.90;;;1.87;;
29362;SDS011;16349;53.672;10.014;2023-12-29T01:49:16;4.50;;;1.90;;
29362;SDS011;16349;53.672;10.014;2023-12-29T01:51:43;10.50;;;1.70;;
29362;SDS011;16349;53.672;10.014;2023-12-29T01:54:11;4.80;;;2.03;;
29362;SDS011;16349;53.672;10.014;2023-12-29T01:56:41;5.43;;;1.73;;
29362;SDS011;16349;53.672;10.014;2023-12-29T01:59:08;5.70;;;1.90;;
29362;SDS011;16349;53.672;10.014;2023-12-29T02:01:35;3.43;;;2.23;;
29362;SDS011;16349;53.672;10.014;2023-12-29T02:04:04;5.80;;;1.87;;
29362;SDS011;16349;53.672;10.014;2023-12-29T02:06:31;6.37;;;1.87;;
29362;SDS011;16349;53.672;10.014;2023-12-29T02:09:00;5.90;;;1.40;;
29362;SDS011;16349;53.672;10.014;2023-12-29T02:11:28;9.20;;;2.03;;
29362;SDS011;16349;53.672;10.014;2023-12-29T02:13:57;11.37;;;2.17;;
29362;SDS011;16349;53.672;10.014;2023-12-29T02:16:27;4.87;;;1.63;;
29362;SDS011;16349;53.672;10.014;2023-12-29T02:19:02;6.73;;;1.90;;
29362;SDS011;16349;53.672;10.014;2023-12-29T02:21:34;5.67;;;1.60;;
29362;SDS011;16349;53.672;10.014;2023-12-29T02:24:01;5.57;;;1.63;;
29362;SDS011;16349;53.672;10.014;2023-12-29T02:26:30;3.93;;;1.53;;
29362;SDS011;16349;53.672;10.014;2023-12-29T02:29:01;4.93;;;1.83;;
29362;SDS011;16349;53.672;10.014;2023-12-29T02:31:31;4.70;;;1.43;;
29362;SDS011;16349;53.672;10.014;2023-12-29T02:34:05;6.17;;;1.60;;
29362;SDS011;16349;53.672;10.014;2023-12-29T02:36:35;7.00;;;1.57;;
29362;SDS011;16349;53.672;10.014;2023-12-29T02:39:07;5.63;;;1.73;;
29362;SDS011;16349;53.672;10.014;2023-12-29T02:41:36;9.53;;;2.03;;
29362;SDS011;16349;53.672;10.014;2023-12-29T02:44:03;5.27;;;1.63;;
29362;SDS011;16349;53.672;10.014;2023-12-29T02:46:30;5.37;;;1.80;;
29362;SDS011;16349;53.672;10.014;2023-12-29T02:48:57;3.43;;;2.20;;
29362;SDS011;16349;53.672;10.014;2023-12-29T02:51:24;5.50;;;1.80;;
29362;SDS011;16349;53.672;10.014;2023-12-29T02:53:51;5.67;;;1.90;;
29362;SDS011;16349;53.672;10.014;2023-12-29T02:56:18;4.67;;;1.53;;
29362;SDS011;16349;53.672;10.014;2023-12-29T02:58:46;7.27;;;1.50;;
29362;SDS011;16349;53.672;10.014;2023-12-29T03:01:13;3.83;;;1.50;;
29362;SDS011;16349;53.672;10.014;2023-12-29T03:03:40;10.67;;;1.93;;
29362;SDS011;16349;53.672;10.014;2023-12-29T03:06:07;7.17;;;1.80;;
29362;SDS011;16349;53.672;10.014;2023-12-29T03:08:33;3.27;;;1.30;;
29362;SDS011;16349;53.672;10.014;2023-12-29T03:11:00;9.47;;;1.70;;
29362;SDS011;16349;53.672;10.014;2023-12-29T03:13:27;4.37;;;1.70;;
29362;SDS011;16349;53.672;10.014;2023-12-29T03:15:55;6.07;;;1.10;;
29362;SDS011;16349;53.672;10.014;2023-12-29T03:18:22;3.07;;;1.40;;
29362;SDS011;16349;53.672;10.014;2023-12-29T03:20:49;4.90;;;1.50;;
29362;SDS011;16349;53.672;10.014;2023-12-29T03:23:16;6.27;;;1.20;;
29362;SDS011;16349;53.672;10.014;2023-12-29T03:25:42;6.57;;;1.20;;
29362;SDS011;16349;53.672;10.014;2023-12-29T03:28:10;4.77;;;1.00;;
29362;SDS011;16349;53.672;10.014;2023-12-29T03:30:37;2.97;;;1.30;;
29362;SDS011;16349;53.672;10.014;2023-12-29T03:33:05;4.20;;;1.40;;
29362;SDS011;16349;53.672;10.014;2023-12-29T03:35:32;3.10;;;0.73;;
29362;SDS011;16349;53.672;10.014;2023-12-29T03:37:59;4.47;;;0.77;;
29362;SDS011;16349;53.672;10.014;2023-12-29T03:40:25;4.63;;;1.30;;
29362;SDS011;16349;53.672;10.014;2023-12-29T03:42:52;5.40;;;1.23;;
29362;SDS011;16349;53.672;10.014;2023-12-29T03:45:20;3.63;;;1.20;;
29362;SDS011;16349;53.672;10.014;2023-12-29T03:47:47;3.13;;;1.00;;
29362;SDS011;16349;53.672;10.014;2023-12-29T03:50:16;3.77;;;1.17;;
29362;SDS011;16349;53.672;10.014;2023-12-29T03:52:42;4.37;;;1.00;;
29362;SDS011;16349;53.672;10.014;2023-12-29T03:55:09;1.87;;;1.20;;
29362;SDS011;16349;53.672;10.014;2023-12-29T03:57:38;5.67;;;1.60;;
29362;SDS011;16349;53.672;10.014;2023-12-29T04:00:05;1.77;;;1.00;;
29362;SDS011;16349;53.672;10.014;2023-12-29T04:02:37;5.57;;;1.23;;
29362;SDS011;16349;53.672;10.014;2023-12-29T04:05:05;3.53;;;0.80;;
29362;SDS011;16349;53.672;10.014;2023-12-29T04:07:34;3.90;;;1.20;;
29362;SDS011;16349;53.672;10.014;2023-12-29T04:10:01;2.77;;;1.13;;
29362;SDS011;16349;53.672;10.014;2023-12-29T04:12:29;1.27;;;0.80;;
29362;SDS011;16349;53.672;10.014;2023-12-29T04:14:56;3.63;;;1.13;;
29362;SDS011;16349;53.672;10.014;2023-12-29T04:17:24;2.50;;;1.17;;
29362;SDS011;16349;53.672;10.014;2023-12-29T04:19:51;2.03;;;0.90;;
29362;SDS011;16349;53.672;10.014;2023-12-29T04:22:19;2.67;;;0.60;;
29362;SDS011;16349;53.672;10.014;2023-12-29T04:24:47;4.30;;;0.60;;
29362;SDS011;16349;53.672;10.014;2023-12-29T04:27:14;1.53;;;0.50;;
29362;SDS011;16349;53.672;10.014;2023-12-29T04:29:41;1.77;;;0.67;;
29362;SDS011;16349;53.672;10.014;2023-12-29T04:32:09;0.50;;;0.40;;
29362;SDS011;16349;53.672;10.014;2023-12-29T04:34:36;1.37;;;0.90;;
29362;SDS011;16349;53.672;10.014;2023-12-29T04:37:03;2.07;;;0.83;;
29362;SDS011;16349;53.672;10.014;2023-12-29T04:39:30;3.00;;;0.40;;
29362;SDS011;16349;53.672;10.014;2023-12-29T04:41:58;1.17;;;0.37;;
29362;SDS011;16349;53.672;10.014;2023-12-29T04:44:25;1.27;;;0.50;;
29362;SDS011;16349;53.672;10.014;2023-12-29T04:46:52;2.90;;;0.50;;
29362;SDS011;16349;53.672;10.014;2023-12-29T04:49:19;1.80;;;0.30;;
29362;SDS011;16349;53.672;10.014;2023-12-29T04:51:45;2.03;;;0.50;;
29362;SDS011;16349;53.672;10.014;2023-12-29T04:54:13;1.43;;;0.47;;
29362;SDS011;16349;53.672;10.014;2023-12-29T04:56:40;1.73;;;0.37;;
29362;SDS011;16349;53.672;10.014;2023-12-29T04:59:08;3.50;;;0.40;;
29362;SDS011;16349;53.672;10.014;2023-12-29T05:01:35;0.73;;;0.60;;
29362;SDS011;16349;53.672;10.014;2023-12-29T05:04:02;3.07;;;1.03;;
29362;SDS011;16349;53.672;10.014;2023-12-29T05:06:29;1.00;;;0.47;;
29362;SDS011;16349;53.672;10.014;2023-12-29T05:08:56;2.77;;;0.40;;
29362;SDS011;16349;53.672;10.014;2023-12-29T05:11:23;1.97;;;0.50;;
29362;SDS011;16349;53.672;10.014;2023-12-29T05:13:51;1.93;;;0.50;;
29362;SDS011;16349;53.672;10.014;2023-12-29T05:16:19;1.63;;;0.60;;
29362;SDS011;16349;53.672;10.014;2023-12-29T05:18:46;2.10;;;0.40;;
29362;SDS011;16349;53.672;10.014;2023-12-29T05:21:14;4.53;;;0.70;;
29362;SDS011;16349;53.672;10.014;2023-12-29T05:23:41;4.17;;;0.97;;
29362;SDS011;16349;53.672;10.014;2023-12-29T05:26:09;3.33;;;0.70;;
29362;SDS011;16349;53.672;10.014;2023-12-29T05:28:36;2.53;;;0.70;;
29362;SDS011;16349;53.672;10.014;2023-12-29T05:31:03;4.13;;;1.03;;
29362;SDS011;16349;53.672;10.014;2023-12-29T05:33:31;2.53;;;0.67;;
29362;SDS011;16349;53.672;10.014;2023-12-29T05:36:04;3.30;;;0.80;;
29362;SDS011;16349;53.672;10.014;2023-12-29T05:38:32;3.67;;;0.90;;
29362;SDS011;16349;53.672;10.014;2023-12-29T05:41:00;3.27;;;0.80;;
29362;SDS011;16349;53.672;10.014;2023-12-29T05:43:28;4.83;;;1.13;;
29362;SDS011;16349;53.672;10.014;2023-12-29T05:45:56;5.67;;;1.40;;
29362;SDS011;16349;53.672;10.014;2023-12-29T05:48:23;3.87;;;0.80;;
29362;SDS011;16349;53.672;10.014;2023-12-29T05:50:52;3.90;;;0.90;;
29362;SDS011;16349;53.672;10.014;2023-12-29T05:53:19;4.20;;;0.73;;
29362;SDS011;16349;53.672;10.014;2023-12-29T05:55:46;2.90;;;0.90;;
29362;SDS011;16349;53.672;10.014;2023-12-29T05:58:13;2.60;;;0.60;;
29362;SDS011;16349;53.672;10.014;2023-12-29T06:00:40;4.73;;;0.70;;
29362;SDS011;16349;53.672;10.014;2023-12-29T06:03:07;3.67;;;0.80;;
29362;SDS011;16349;53.672;10.014;2023-12-29T06:05:34;2.93;;;0.70;;
29362;SDS011;16349;53.672;10.014;2023-12-29T06:08:02;4.77;;;1.13;;
29362;SDS011;16349;53.672;10.014;2023-12-29T06:10:29;2.47;;;0.80;;
29362;SDS011;16349;53.672;10.014;2023-12-29T06:12:56;4.87;;;1.00;;
29362;SDS011;16349;53.672;10.014;2023-12-29T06:15:23;5.40;;;1.47;;
29362;SDS011;16349;53.672;10.014;2023-12-29T06:17:50;5.60;;;1.30;;
29362;SDS011;16349;53.672;10.014;2023-12-29T06:20:17;4.77;;;0.90;;
29362;SDS011;16349;53.672;10.014;2023-12-29T06:22:46;3.53;;;0.67;;
29362;SDS011;16349;53.672;10.014;2023-12-29T06:25:15;3.23;;;1.57;;
29362;SDS011;16349;53.672;10.014;2023-12-29T06:27:42;5.37;;;1.70;;
29362;SDS011;16349;53.672;10.014;2023-12-29T06:30:09;4.87;;;1.30;;
29362;SDS011;16349;53.672;10.014;2023-12-29T06:32:37;3.77;;;1.17;;
29362;SDS011;16349;53.672;10.014;2023-12-29T06:35:05;5.70;;;1.40;;
29362;SDS011;16349;53.672;10.014;2023-12-29T06:37:33;5.73;;;1.30;;
29362;SDS011;16349;53.672;10.014;2023-12-29T06:40:00;2.73;;;1.43;;
29362;SDS011;16349;53.672;10.014;2023-12-29T06:42:28;7.97;;;1.70;;
29362;SDS011;16349;53.672;10.014;2023-12-29T06:44:55;7.13;;;2.20;;
29362;SDS011;16349;53.672;10.014;2023-12-29T06:47:22;1.77;;;1.07;;
29362;SDS011;16349;53.672;10.014;2023-12-29T06:49:49;9.50;;;1.63;;
29362;SDS011;16349;53.672;10.014;2023-12-29T06:52:17;8.80;;;1.53;;
29362;SDS011;16349;53.672;10.014;2023-12-29T06:54:44;6.50;;;2.10;;
29362;SDS011;16349;53.672;10.014;2023-12-29T06:57:11;5.27;;;1.40;;
29362;SDS011;16349;53.672;10.014;2023-12-29T06:59:41;5.67;;;1.50;;
29362;SDS011;16349;53.672;10.014;2023-12-29T07:02:08;8.60;;;1.80;;
29362;SDS011;16349;53.672;10.014;2023-12-29T07:04:35;8.67;;;1.30;;
29362;SDS011;16349;53.672;10.014;2023-12-29T07:07:02;12.87;;;1.50;;
29362;SDS011;16349;53.672;10.014;2023-12-29T07:09:29;6.67;;;1.90;;
29362;SDS011;16349;53.672;10.014;2023-12-29T07:11:56;5.90;;;1.70;;
29362;SDS011;16349;53.672;10.014;2023-12-29T07:14:23;7.27;;;1.30;;
29362;SDS011;16349;53.672;10.014;2023-12-29T07:16:51;8.13;;;2.03;;
29362;SDS011;16349;53.672;10.014;2023-12-29T07:19:18;12.23;;;2.13;;
29362;SDS011;16349;53.672;10.014;2023-12-29T07:21:45;5.43;;;1.80;;
29362;SDS011;16349;53.672;10.014;2023-12-29T07:24:12;7.67;;;1.60;;
29362;SDS011;16349;53.672;10.014;2023-12-29T07:26:39;5.90;;;1.40;;
29362;SDS011;16349;53.672;10.014;2023-12-29T07:29:07;9.73;;;1.70;;
29362;SDS011;16349;53.672;10.014;2023-12-29T07:31:36;6.80;;;1.47;;
29362;SDS011;16349;53.672;10.014;2023-12-29T07:34:06;7.77;;;1.40;;
29362;SDS011;16349;53.672;10.014;2023-12-29T07:36:37;11.17;;;2.23;;
29362;SDS011;16349;53.672;10.014;2023-12-29T07:39:04;10.27;;;2.50;;
29362;SDS011;16349;53.672;10.014;2023-12-29T07:41:31;9.73;;;1.93;;
29362;SDS011;16349;53.672;10.014;2023-12-29T07:43:59;5.97;;;1.70;;
29362;SDS011;16349;53.672;10.014;2023-12-29T07:46:26;10.80;;;2.00;;
29362;SDS011;16349;53.672;10.014;2023-12-29T07:48:53;7.03;;;1.53;;
29362;SDS011;16349;53.672;10.014;2023-12-29T07:51:21;9.33;;;2.13;;
29362;SDS011;16349;53.672;10.014;2023-12-29T07:53:48;9.20;;;1.90;;
29362;SDS011;16349;53.672;10.014;2023-12-29T07:56:16;11.17;;;2.53;;
29362;SDS011;16349;53.672;10.014;2023-12-29T07:58:42;7.17;;;1.77;;
29362;SDS011;16349;53.672;10.014;2023-12-29T08:01:09;9.63;;;1.80;;
29362;SDS011;16349;53.672;10.014;2023-12-29T08:03:36;10.63;;;1.73;;
29362;SDS011;16349;53.672;10.014;2023-12-29T08:06:03;9.23;;;2.37;;
29362;SDS011;16349;53.672;10.014;2023-12-29T08:08:31;10.63;;;2.77;;
29362;SDS011;16349;53.672;10.014;2023-12-29T08:10:59;7.63;;;1.87;;
29362;SDS011;16349;53.672;10.014;2023-12-29T08:13:26;12.83;;;2.30;;
29362;SDS011;16349;53.672;10.014;2023-12-29T08:15:53;9.83;;;2.73;;
29362;SDS011;16349;53.672;10.014;2023-12-29T08:18:20;11.37;;;2.30;;
29362;SDS011;16349;53.672;10.014;2023-12-29T08:20:47;7.10;;;1.83;;
29362;SDS011;16349;53.672;10.014;2023-12-29T08:23:14;11.63;;;2.23;;
29362;SDS011;16349;53.672;10.014;2023-12-29T08:25:42;8.63;;;2.20;;
29362;SDS011;16349;53.672;10.014;2023-12-29T08:28:09;12.80;;;2.37;;
29362;SDS011;16349;53.672;10.014;2023-12-29T08:30:36;6.17;;;1.70;;
29362;SDS011;16349;53.672;10.014;2023-12-29T08:33:03;9.47;;;1.77;;
29362;SDS011;16349;53.672;10.014;2023-12-29T08:35:30;8.37;;;2.33;;
29362;SDS011;16349;53.672;10.014;2023-12-29T08:37:57;11.00;;;2.57;;
29362;SDS011;16349;53.672;10.014;2023-12-29T08:40:24;8.53;;;1.90;;
29362;SDS011;16349;53.672;10.014;2023-12-29T08:42:52;7.33;;;2.43;;
29362;SDS011;16349;53.672;10.014;2023-12-29T08:45:20;8.53;;;2.00;;
29362;SDS011;16349;53.672;10.014;2023-12-29T08:47:46;7.37;;;2.30;;
29362;SDS011;16349;53.672;10.014;2023-12-29T08:50:13;10.00;;;2.30;;
29362;SDS011;16349;53.672;10.014;2023-12-29T08:52:41;10.60;;;2.10;;
29362;SDS011;16349;53.672;10.014;2023-12-29T08:55:07;6.77;;;1.80;;
29362;SDS011;16349;53.672;10.014;2023-12-29T08:57:35;13.57;;;3.03;;
29362;SDS011;16349;53.672;10.014;2023-12-29T09:00:03;11.30;;;2.10;;
29362;SDS011;16349;53.672;10.014;2023-12-29T09:02:31;12.47;;;2.40;;
29362;SDS011;16349;53.672;10.014;2023-12-29T09:04:58;7.17;;;1.47;;
29362;SDS011;16349;53.672;10.014;2023-12-29T09:07:25;6.87;;;1.93;;
29362;SDS011;16349;53.672;10.014;2023-12-29T09:09:53;8.93;;;1.57;;
29362;SDS011;16349;53.672;10.014;2023-12-29T09:12:20;6.77;;;1.53;;
29362;SDS011;16349;53.672;10.014;2023-12-29T09:14:46;5.07;;;1.27;;
29362;SDS011;16349;53.672;10.014;2023-12-29T09:17:15;9.07;;;1.87;;
29362;SDS011;16349;53.672;10.014;2023-12-29T09:19:42;5.00;;;1.10;;
29362;SDS011;16349;53.672;10.014;2023-12-29T09:22:09;3.83;;;1.03;;
29362;SDS011;16349;53.672;10.014;2023-12-29T09:24:35;3.43;;;0.90;;
29362;SDS011;16349;53.672;10.014;2023-12-29T09:27:02;2.70;;;0.60;;
29362;SDS011;16349;53.672;10.014;2023-12-29T09:29:29;3.67;;;0.80;;
29362;SDS011;16349;53.672;10.014;2023-12-29T09:31:56;4.00;;;0.80;;
29362;SDS011;16349;53.672;10.014;2023-12-29T09:34:24;5.27;;;0.90;;
29362;SDS011;16349;53.672;10.014;2023-12-29T09:36:51;3.47;;;1.00;;
29362;SDS011;16349;53.672;10.014;2023-12-29T09:39:18;3.17;;;0.80;;
29362;SDS011;16349;53.672;10.014;2023-12-29T09:41:45;3.90;;;1.00;;
29362;SDS011;16349;53.672;10.014;2023-12-29T09:44:13;6.37;;;0.60;;
29362;SDS011;16349;53.672;10.014;2023-12-29T09:46:41;2.83;;;0.70;;
29362;SDS011;16349;53.672;10.014;2023-12-29T09:49:08;4.43;;;0.70;;
29362;SDS011;16349;53.672;10.014;2023-12-29T09:51:38;5.03;;;1.33;;
29362;SDS011;16349;53.672;10.014;2023-12-29T09:54:05;3.77;;;1.30;;
29362;SDS011;16349;53.672;10.014;2023-12-29T09:56:34;10.03;;;1.30;;
29362;SDS011;16349;53.672;10.014;2023-12-29T09:59:01;4.73;;;1.20;;
29362;SDS011;16349;53.672;10.014;2023-12-29T10:01:30;8.20;;;1.20;;
29362;SDS011;16349;53.672;10.014;2023-12-29T10:03:58;5.87;;;1.47;;
29362;SDS011;16349;53.672;10.014;2023-12-29T10:06:25;4.20;;;1.00;;
29362;SDS011;16349;53.672;10.014;2023-12-29T10:08:53;7.53;;;1.70;;
29362;SDS011;16349;53.672;10.014;2023-12-29T10:11:22;5.07;;;1.60;;
29362;SDS011;16349;53.672;10.014;2023-12-29T10:13:51;3.10;;;0.90;;
29362;SDS011;16349;53.672;10.014;2023-12-29T10:16:22;3.67;;;1.30;;
29362;SDS011;16349;53.672;10.014;2023-12-29T10:18:57;5.63;;;1.83;;
29362;SDS011;16349;53.672;10.014;2023-12-29T10:21:37;12.03;;;2.10;;
29362;SDS011;16349;53.672;10.014;2023-12-29T10:24:13;7.50;;;1.70;;
29362;SDS011;16349;53.672;10.014;2023-12-29T10:26:44;7.53;;;1.83;;
29362;SDS011;16349;53.672;10.014;2023-12-29T10:29:11;8.80;;;1.80;;
29362;SDS011;16349;53.672;10.014;2023-12-29T10:31:38;6.77;;;1.83;;
29362;SDS011;16349;53.672;10.014;2023-12-29T10:34:16;4.90;;;1.50;;
29362;SDS011;16349;53.672;10.014;2023-12-29T10:36:46;8.43;;;1.93;;
29362;SDS011;16349;53.672;10.014;2023-12-29T10:39:15;7.43;;;1.60;;
29362;SDS011;16349;53.672;10.014;2023-12-29T10:41:42;7.00;;;2.00;;
29362;SDS011;16349;53.672;10.014;2023-12-29T10:44:09;10.00;;;1.90;;
29362;SDS011;16349;53.672;10.014;2023-12-29T10:46:36;7.93;;;1.90;;
29362;SDS011;16349;53.672;10.014;2023-12-29T10:49:06;9.07;;;2.33;;
29362;SDS011;16349;53.672;10.014;2023-12-29T10:51:34;9.47;;;2.23;;
29362;SDS011;16349;53.672;10.014;2023-12-29T10:54:02;9.00;;;2.23;;
29362;SDS011;16349;53.672;10.014;2023-12-29T10:56:30;5.23;;;2.03;;
29362;SDS011;16349;53.672;10.014;2023-12-29T10:58:58;4.67;;;1.70;;
29362;SDS011;16349;53.672;10.014;2023-12-29T11:01:27;13.80;;;2.57;;
29362;SDS011;16349;53.672;10.014;2023-12-29T11:04:01;10.20;;;1.57;;
29362;SDS011;16349;53.672;10.014;2023-12-29T11:06:28;13.00;;;2.40;;
29362;SDS011;16349;53.672;10.014;2023-12-29T11:08:56;7.37;;;1.57;;
29362;SDS011;16349;53.672;10.014;2023-12-29T11:11:23;6.47;;;1.53;;
29362;SDS011;16349;53.672;10.014;2023-12-29T11:13:53;6.77;;;1.83;;
29362;SDS011;16349;53.672;10.014;2023-12-29T11:16:21;8.10;;;1.90;;
29362;SDS011;16349;53.672;10.014;2023-12-29T11:18:49;5.60;;;1.80;;
29362;SDS011;16349;53.672;10.014;2023-12-29T11:21:19;8.20;;;2.23;;
29362;SDS011;16349;53.672;10.014;2023-12-29T11:23:48;9.80;;;2.30;;
29362;SDS011;16349;53.672;10.014;2023-12-29T11:26:15;6.30;;;1.90;;
29362;SDS011;16349;53.672;10.014;2023-12-29T11:28:43;10.10;;;2.50;;
29362;SDS011;16349;53.672;10.014;2023-12-29T11:31:13;6.87;;;1.70;;
29362;SDS011;16349;53.672;10.014;2023-12-29T11:33:43;8.33;;;1.63;;
29362;SDS011;16349;53.672;10.014;2023-12-29T11:36:15;6.37;;;1.83;;
29362;SDS011;16349;53.672;10.014;2023-12-29T11:38:48;8.33;;;1.67;;
29362;SDS011;16349;53.672;10.014;2023-12-29T11:41:25;8.60;;;2.13;;
29362;SDS011;16349;53.672;10.014;2023-12-29T11:43:58;9.97;;;2.00;;
29362;SDS011;16349;53.672;10.014;2023-12-29T11:46:37;9.87;;;2.57;;
29362;SDS011;16349;53.672;10.014;2023-12-29T11:49:05;6.23;;;1.97;;
29362;SDS011;16349;53.672;10.014;2023-12-29T11:51:33;11.23;;;1.70;;
29362;SDS011;16349;53.672;10.014;2023-12-29T11:54:01;12.47;;;2.73;;
29362;SDS011;16349;53.672;10.014;2023-12-29T11:56:34;6.47;;;1.90;;
29362;SDS011;16349;53.672;10.014;2023-12-29T11:59:15;9.10;;;1.83;;
29362;SDS011;16349;53.672;10.014;2023-12-29T12:01:44;6.03;;;2.10;;
29362;SDS011;16349;53.672;10.014;2023-12-29T12:04:33;10.20;;;1.80;;
29362;SDS011;16349;53.672;10.014;2023-12-29T12:07:01;4.47;;;1.27;;
29362;SDS011;16349;53.672;10.014;2023-12-29T12:09:29;4.73;;;1.40;;
29362;SDS011;16349;53.672;10.014;2023-12-29T12:11:55;6.70;;;1.80;;
29362;SDS011;16349;53.672;10.014;2023-12-29T12:17:10;8.23;;;1.70;;
29362;SDS011;16349;53.672;10.014;2023-12-29T12:19:38;3.50;;;1.00;;
29362;SDS011;16349;53.672;10.014;2023-12-29T12:22:05;5.90;;;1.47;;
29362;SDS011;16349;53.672;10.014;2023-12-29T12:24:35;9.93;;;1.37;;
29362;SDS011;16349;53.672;10.014;2023-12-29T12:27:03;5.73;;;1.30;;
29362;SDS011;16349;53.672;10.014;2023-12-29T12:29:35;3.80;;;1.40;;
29362;SDS011;16349;53.672;10.014;2023-12-29T12:32:02;8.43;;;2.00;;
29362;SDS011;16349;53.672;10.014;2023-12-29T12:34:38;5.47;;;1.40;;
29362;SDS011;16349;53.672;10.014;2023-12-29T12:37:05;7.90;;;1.53;;
29362;SDS011;16349;53.672;10.014;2023-12-29T12:39:38;11.10;;;1.93;;
29362;SDS011;16349;53.672;10.014;2023-12-29T12:42:06;7.30;;;2.00;;
29362;SDS011;16349;53.672;10.014;2023-12-29T12:44:33;4.83;;;2.10;;
29362;SDS011;16349;53.672;10.014;2023-12-29T12:47:01;8.60;;;1.47;;
29362;SDS011;16349;53.672;10.014;2023-12-29T12:49:34;6.60;;;1.40;;
29362;SDS011;16349;53.672;10.014;2023-12-29T12:52:02;9.43;;;1.60;;
29362;SDS011;16349;53.672;10.014;2023-12-29T12:54:29;2.67;;;1.23;;
29362;SDS011;16349;53.672;10.014;2023-12-29T12:56:57;6.70;;;1.53;;
29362;SDS011;16349;53.672;10.014;2023-12-29T12:59:24;5.83;;;1.87;;
29362;SDS011;16349;53.672;10.014;2023-12-29T13:01:53;5.80;;;1.70;;
29362;SDS011;16349;53.672;10.014;2023-12-29T13:04:20;6.80;;;1.43;;
29362;SDS011;16349;53.672;10.014;2023-12-29T13:06:47;7.67;;;1.60;;
29362;SDS011;16349;53.672;10.014;2023-12-29T13:09:15;6.20;;;1.53;;
29362;SDS011;16349;53.672;10.014;2023-12-29T13:11:44;6.40;;;1.27;;
29362;SDS011;16349;53.672;10.014;2023-12-29T13:14:19;8.07;;;1.63;;
29362;SDS011;16349;53.672;10.014;2023-12-29T13:16:46;7.30;;;1.70;;
29362;SDS011;16349;53.672;10.014;2023-12-29T13:19:17;7.57;;;1.50;;
29362;SDS011;16349;53.672;10.014;2023-12-29T13:21:45;4.57;;;1.63;;
29362;SDS011;16349;53.672;10.014;2023-12-29T13:24:13;3.77;;;1.33;;
29362;SDS011;16349;53.672;10.014;2023-12-29T13:26:43;5.27;;;1.50;;
29362;SDS011;16349;53.672;10.014;2023-12-29T13:29:13;7.10;;;1.60;;
29362;SDS011;16349;53.672;10.014;2023-12-29T13:31:40;10.43;;;2.20;;
29362;SDS011;16349;53.672;10.014;2023-12-29T13:34:11;8.47;;;1.70;;
29362;SDS011;16349;53.672;10.014;2023-12-29T13:36:42;4.77;;;1.10;;
29362;SDS011;16349;53.672;10.014;2023-12-29T13:39:14;7.33;;;1.47;;
29362;SDS011;16349;53.672;10.014;2023-12-29T13:41:52;6.77;;;1.63;;
29362;SDS011;16349;53.672;10.014;2023-12-29T13:44:20;8.93;;;1.50;;
29362;SDS011;16349;53.672;10.014;2023-12-29T13:46:48;8.40;;;1.80;;
29362;SDS011;16349;53.672;10.014;2023-12-29T13:49:17;7.10;;;1.13;;
29362;SDS011;16349;53.672;10.014;2023-12-29T13:51:45;8.13;;;1.50;;
29362;SDS011;16349;53.672;10.014;2023-12-29T13:54:12;6.57;;;1.40;;
29362;SDS011;16349;53.672;10.014;2023-12-29T13:56:40;6.83;;;2.07;;
29362;SDS011;16349;53.672;10.014;2023-12-29T13:59:18;4.67;;;1.53;;
29362;SDS011;16349;53.672;10.014;2023-12-29T14:01:45;7.00;;;1.80;;
29362;SDS011;16349;53.672;10.014;2023-12-29T14:04:12;11.77;;;2.07;;
29362;SDS011;16349;53.672;10.014;2023-12-29T14:06:49;9.80;;;2.00;;
29362;SDS011;16349;53.672;10.014;2023-12-29T14:09:18;5.67;;;1.63;;
29362;SDS011;16349;53.672;10.014;2023-12-29T14:11:47;7.80;;;2.50;;
29362;SDS011;16349;53.672;10.014;2023-12-29T14:14:20;8.33;;;1.90;;
29362;SDS011;16349;53.672;10.014;2023-12-29T14:16:48;9.33;;;1.43;;
29362;SDS011;16349;53.672;10.014;2023-12-29T14:19:15;6.53;;;1.53;;
29362;SDS011;16349;53.672;10.014;2023-12-29T14:21:42;4.83;;;1.60;;
29362;SDS011;16349;53.672;10.014;2023-12-29T14:24:09;6.57;;;1.63;;
29362;SDS011;16349;53.672;10.014;2023-12-29T14:26:37;9.17;;;1.97;;
29362;SDS011;16349;53.672;10.014;2023-12-29T14:29:07;6.43;;;1.37;;
29362;SDS011;16349;53.672;10.014;2023-12-29T14:31:35;7.43;;;1.60;;
29362;SDS011;16349;53.672;10.014;2023-12-29T14:34:03;7.77;;;1.83;;
29362;SDS011;16349;53.672;10.014;2023-12-29T14:36:31;7.50;;;2.00;;
29362;SDS011;16349;53.672;10.014;2023-12-29T14:38:58;6.83;;;1.60;;
29362;SDS011;16349;53.672;10.014;2023-12-29T14:41:25;5.03;;;1.50;;